Flight Track Log - Related Links

Times and Time Zones

All times are in EDT time to prevent confusion due to time zone crossing. See the FLG4287 flight status page for this flight to view local times or setup timezone preferences in your user account.

Time Position Orientation Groundspeed Altitude Reporting Facility
EDT Latitude Longitude Course Direction KTS MPH feet Rate Location/Type
Sat 02:11:12 PM 28.4000 -81.3000 52° Northeast 175 201 600  Level Orlando TRACON
Sat 02:16:22 PM 28.5300 -81.1111 338° Northwest 325 374 11,200 2,043 Climbing Jacksonville Center
Sat 02:17:22 PM 28.6181 -81.1519 336° Northwest 386 444 13,200 2,100 Climbing Jacksonville Center
Sat 02:18:22 PM 28.7042 -81.1956 337° Northwest 368 423 15,400 1,900 Climbing Jacksonville Center
Sat 02:19:22 PM 28.7903 -81.2367 336° Northwest 348 400 17,000 1,650 Climbing Jacksonville Center
Sat 02:20:22 PM 28.8786 -81.2825 338° Northwest 341 392 18,700 1,600 Climbing Jacksonville Center
Sat 02:21:22 PM 28.9689 -81.3239 335° Northwest 341 392 20,200 1,500 Climbing Jacksonville Center
Sat 02:22:22 PM 29.0550 -81.3700 348° North 335 386 21,700 1,300 Climbing Jacksonville Center
Sat 02:23:22 PM 29.1492 -81.3922 358° North 342 394 22,800 950 Climbing Jacksonville Center
Sat 02:24:22 PM 29.2472 -81.3956 358° North 348 400 23,600 750 Climbing Jacksonville Center
Sat 02:25:22 PM 29.3392 -81.3989 358° North 367 422 24,300 850 Climbing Jacksonville Center
Sat 02:26:22 PM 29.4561 -81.4044 North 367 422 25,300 850 Climbing Jacksonville Center
Sat 02:27:22 PM 29.5500 -81.4028 360° North 367 422 26,000 650 Climbing Jacksonville Center
Sat 02:28:22 PM 29.6567 -81.4036 359° North 367 422 26,600 550 Climbing Jacksonville Center
Sat 02:29:22 PM 29.7672 -81.4067 360° North 380 437 27,100 500 Climbing Jacksonville Center
Sat 02:30:22 PM 29.8778 -81.4075 359° North 385 443 27,600 550 Climbing Jacksonville Center
Sat 02:31:22 PM 30.0053 -81.4103 359° North 401 461 28,200 550 Climbing Jacksonville Center
Sat 02:32:22 PM 30.1203 -81.4133 360° North 401 461 28,700 400 Climbing Jacksonville Center
Sat 02:33:22 PM 30.2350 -81.4139 359° North 401 461 29,000 150 Climbing Jacksonville Center
Sat 02:34:22 PM 30.3539 -81.4169 360° North 407 468 29,000  Level Jacksonville Center
Sat 02:35:22 PM 30.4772 -81.4175 359° North 423 487 29,000  Level Jacksonville Center
Sat 02:36:22 PM 30.5983 -81.4203 359° North 428 493 29,000  Level Jacksonville Center
Sat 02:37:22 PM 30.7194 -81.4233 359° North 428 493 29,000  Level Jacksonville Center
Sat 02:38:22 PM 30.8428 -81.4264 360° North 433 498 29,000  Level Jacksonville Center
Sat 02:39:22 PM 30.9639 -81.4269 359° North 433 498 29,000  Level Jacksonville Center
Sat 02:40:22 PM 31.0850 -81.4297 North 438 504 29,000  Level Jacksonville Center
Sat 02:41:22 PM 31.2058 -81.4133 North 438 504 29,000  Level Jacksonville Center
Sat 02:42:22 PM 31.3289 -81.3992 North 432 497 29,000  Level Jacksonville Center
Sat 02:43:22 PM 31.4497 -81.3828 North 437 503 29,000  Level Jacksonville Center
Sat 02:44:22 PM 31.5581 -81.3689 North 437 503 29,000  Level Jacksonville Center
Sat 02:45:22 PM 31.6936 -81.3519 North 443 510 29,000  Level Jacksonville Center
Sat 02:46:22 PM 31.8019 -81.3378 North 443 510 29,000  Level Jacksonville Center
Sat 02:47:22 PM 31.9397 -81.3208 North 443 510 29,000  Level Jacksonville Center
Sat 02:48:22 PM 32.0606 -81.3017 North 443 510 29,000  Level Jacksonville Center
Sat 02:49:22 PM 32.1856 -81.2847 North 443 510 29,000  Level Jacksonville Center
Sat 02:50:22 PM 32.3064 -81.2678 North 443 510 29,000  Level Jacksonville Center
Sat 02:51:22 PM 32.4314 -81.2533 North 443 510 29,000  Level Jacksonville Center
Sat 02:52:22 PM 32.5419 -81.2389 North 443 510 29,000  Level Jacksonville Center
Sat 02:53:22 PM 32.6775 -81.2192 22° Northeast 448 516 29,000  Level Jacksonville Center
Sat 02:54:22 PM 32.7956 -81.1628 24° Northeast 448 516 29,000  Level Jacksonville Center
Sat 02:55:22 PM 32.9094 -81.1011 25° Northeast 442 509 29,000  Level Jacksonville Center
Sat 02:56:22 PM 33.0233 -81.0369 24° Northeast 442 509 29,000  Level Jacksonville Center
Sat 02:57:22 PM 33.1372 -80.9750 24° Northeast 442 509 29,000  Level Jacksonville Center
Sat 02:58:22 PM 33.2492 -80.9156 24° Northeast 442 509 29,000  Level Jacksonville Center
Sat 02:59:22 PM 33.3650 -80.8533 24° Northeast 442 509 29,000  Level Jacksonville Center
Sat 03:00:22 PM 33.4808 -80.7908 26° Northeast 442 509 29,000  Level Jacksonville Center
Sat 03:01:22 PM 33.5800 -80.7336 25° Northeast 442 509 29,000  Level Jacksonville Center
Sat 03:02:22 PM 33.6936 -80.6708 25° Northeast 437 503 29,000  Level Jacksonville Center
Sat 03:03:22 PM 33.8075 -80.6081 25° Northeast 437 503 29,000  Level Jacksonville Center
Sat 03:04:22 PM 33.9211 -80.5450 25° Northeast 442 509 29,000  Level Jacksonville Center
Sat 03:05:22 PM 34.0325 -80.4819 24° Northeast 442 509 29,000 -600 Level Jacksonville Center
Sat 03:06:22 PM 34.1481 -80.4186 26° Northeast 442 509 27,800 -1,850 Descending Jacksonville Center
Sat 03:07:22 PM 34.2575 -80.3550 24° Northeast 442 509 25,300 -2,200 Descending Jacksonville Center
Sat 03:08:22 PM 34.3628 -80.2992 25° Northeast 432 497 23,400 -1,700 Descending Jacksonville Center
Sat 03:09:22 PM 34.4617 -80.2433 25° Northeast 408 470 21,900 -774 Descending Jacksonville Center
Sat 03:11:28 PM 34.6681 -80.1247 24° Northeast 391 450 21,000 -293 Descending Washington Center
Sat 03:12:26 PM 34.7767 -80.0650 39° Northeast 391 450 21,000  Level Washington Center
Sat 03:13:26 PM 34.8678 -79.9739 44° Northeast 405 466 21,000  Level Washington Center
Sat 03:14:27 PM 34.9506 -79.8769 36° Northeast 412 474 21,000  Level Washington Center
Sat 03:15:27 PM 35.0431 -79.7956 35° Northeast 412 474 21,000 -908 Level Washington Center
Sat 03:16:26 PM 35.1397 -79.7142 35° Northeast 407 468 19,200 -2,067 Descending Washington Center
Sat 03:17:26 PM 35.2194 -79.6447 36° Northeast 399 459 16,900 -2,211 Descending Washington Center
Sat 03:18:20 PM 35.3056 -79.5675 34° Northeast 394 453 15,000 -2,084 Descending Washington Center
Sat 03:19:01 PM 35.3656 -79.5169 38° Northeast 399 459 13,600 -2,067 Descending Washington Center
Sat 03:19:50 PM 35.4367 -79.4492 35° Northeast 374 430 11,900 -1,835 Descending Washington Center
Sat 03:20:26 PM 35.4839 -79.4081 49° Northeast 375 432 11,000 -563 Descending Washington Center
Sat 03:21:26 PM 35.5364 -79.3339 55° Northeast 325 374 11,000 -942 Level Washington Center
Sat 03:22:27 PM 35.5936 -79.2319 56° Northeast 319 367 9,100 -1,890 Descending Washington Center
Sat 03:23:33 PM 35.6422 -79.1422 55° Northeast 303 349 7,000 -1,884 Descending Washington Center
Sat 03:24:28 PM 35.6819 -79.0722 56° Northeast 294 338 5,300 -1,565 Descending Washington Center
Sat 03:25:28 PM 35.7281 -78.9872 47° Northeast 284 327 4,000 -1,068 Descending Washington Center
Sat 03:26:26 PM 35.7781 -78.9203 43° Northeast 271 312 3,200 -1,059 Descending Washington Center
Sat 03:27:27 PM 35.8233 -78.8683 44° Northeast 233 268 1,900 -1,007 Descending Washington Center
Sat 03:28:49 PM 35.8600 -78.8239 44° Northeast 130 150 800 -805 Descending Washington Center

Login

Don't have an account? Register now (free) for customized features, flight alerts, and more!